createdAt,value
2023-04-12T00:04:23.089Z,2.90
2023-04-12T00:09:31.018Z,4.30
2023-04-12T00:14:35.145Z,3.70
2023-04-12T00:19:42.156Z,2.40
2023-04-12T00:24:47.713Z,2.80
2023-04-12T00:29:51.946Z,3.50
2023-04-12T00:34:56.374Z,3.60
2023-04-12T00:40:00.379Z,4.50
2023-04-12T00:45:05.434Z,3.20
2023-04-12T00:50:11.150Z,2.50
2023-04-12T00:55:16.426Z,3.60
2023-04-12T01:00:21.157Z,2.80
2023-04-12T01:05:25.795Z,2.40
2023-04-12T01:10:41.325Z,2.40
2023-04-12T01:16:16.870Z,3.50
2023-04-12T01:21:36.024Z,4.70
2023-04-12T01:26:46.021Z,4.10
2023-04-12T01:31:54.801Z,2.90
2023-04-12T01:37:03.565Z,2.80
2023-04-12T01:42:07.603Z,2.40
2023-04-12T01:47:11.846Z,1.80
2023-04-12T01:52:21.807Z,2.70
2023-04-12T01:57:27.388Z,3.10
2023-04-12T02:02:31.570Z,5.30
2023-04-12T02:07:36.466Z,3.00
2023-04-12T02:12:40.598Z,3.30
2023-04-12T02:17:46.630Z,3.60
2023-04-12T02:22:52.878Z,3.20
2023-04-12T02:27:57.914Z,2.30
2023-04-12T02:33:02.920Z,3.60
2023-04-12T02:38:10.174Z,2.30
2023-04-12T02:43:15.951Z,2.50
2023-04-12T02:48:22.435Z,2.30
2023-04-12T02:53:27.297Z,2.30
2023-04-12T02:58:44.122Z,2.70
2023-04-12T03:03:49.927Z,2.80
2023-04-12T03:09:08.876Z,2.20
2023-04-12T03:14:13.493Z,2.30
2023-04-12T03:19:18.691Z,5.30
2023-04-12T03:24:28.643Z,2.30
2023-04-12T03:29:32.962Z,2.50
2023-04-12T03:34:37.713Z,2.80
2023-04-12T03:39:48.637Z,2.70
2023-04-12T03:44:57.561Z,2.30
2023-04-12T03:55:18.809Z,2.10
2023-04-12T04:00:24.699Z,2.20
2023-04-12T04:05:37.020Z,2.60
2023-04-12T04:10:41.561Z,2.00
2023-04-12T04:15:46.932Z,2.30
2023-04-12T04:20:51.261Z,1.90
2023-04-12T04:25:55.701Z,2.00
2023-04-12T04:31:06.327Z,2.20
2023-04-12T04:36:13.084Z,2.20
2023-04-12T04:41:23.146Z,3.10
2023-04-12T04:46:34.774Z,1.60
2023-04-12T04:51:38.897Z,2.50
2023-04-12T04:56:43.351Z,2.30
2023-04-12T05:01:49.010Z,2.20
2023-04-12T05:06:54.156Z,1.60
2023-04-12T05:12:00.592Z,1.50
2023-04-12T05:17:04.660Z,3.00
2023-04-12T05:22:09.222Z,2.30
2023-04-12T05:27:13.246Z,2.50
2023-04-12T05:32:17.498Z,2.90
2023-04-12T05:37:21.650Z,1.50
2023-04-12T05:42:25.772Z,3.80
2023-04-12T05:47:29.950Z,2.10
2023-04-12T05:52:34.334Z,2.20
2023-04-12T05:57:38.785Z,4.30
2023-04-12T06:02:44.793Z,5.40
2023-04-12T06:07:49.403Z,8.30
2023-04-12T06:12:53.953Z,4.50
2023-04-12T06:17:59.983Z,3.00
2023-04-12T06:23:03.959Z,3.30
2023-04-12T06:28:08.121Z,7.70
2023-04-12T06:33:23.079Z,4.10
2023-04-12T06:38:27.624Z,3.20
2023-04-12T06:43:32.115Z,12.30
2023-04-12T06:48:36.077Z,5.40
2023-04-12T06:53:40.120Z,5.50
2023-04-12T06:58:44.242Z,10.70
2023-04-12T07:03:48.435Z,6.40
2023-04-12T07:08:53.062Z,5.90
2023-04-12T07:13:59.533Z,11.00
2023-04-12T07:19:03.568Z,6.60
2023-04-12T07:24:09.208Z,6.80
2023-04-12T07:29:13.687Z,6.00
2023-04-12T07:34:17.916Z,8.90
2023-04-12T07:39:22.018Z,7.20
2023-04-12T07:44:26.395Z,2.90
2023-04-12T07:49:30.314Z,3.70
2023-04-12T07:54:34.759Z,4.90
2023-04-12T07:59:38.782Z,5.50
2023-04-12T08:04:44.775Z,5.10
2023-04-12T08:09:49.729Z,9.10
2023-04-12T08:14:53.653Z,2.90
2023-04-12T08:19:57.894Z,4.70
2023-04-12T08:25:02.354Z,1.70
2023-04-12T08:30:07.593Z,1.80
2023-04-12T08:35:12.430Z,3.50
2023-04-12T08:40:17.495Z,2.80
2023-04-12T08:45:24.075Z,2.90
2023-04-12T08:50:28.534Z,2.90
2023-04-12T08:55:32.667Z,3.10
2023-04-12T09:00:38.455Z,2.50
2023-04-12T09:05:42.373Z,2.00
2023-04-12T09:10:46.815Z,2.20
2023-04-12T09:15:51.767Z,3.00
2023-04-12T09:21:09.676Z,2.70
2023-04-12T09:26:29.338Z,2.60
2023-04-12T09:31:33.491Z,3.50
2023-04-12T09:36:41.470Z,3.10
2023-04-12T09:41:45.915Z,1.80
2023-04-12T09:46:53.166Z,2.40
2023-04-12T09:51:59.456Z,2.80
2023-04-12T09:57:09.360Z,1.30
2023-04-12T10:02:23.576Z,1.60
2023-04-12T10:07:28.590Z,1.30
2023-04-12T10:12:32.922Z,1.70
2023-04-12T10:17:37.708Z,1.80
2023-04-12T10:22:43.395Z,2.60
2023-04-12T10:27:48.371Z,2.40
2023-04-12T10:33:10.523Z,1.80
2023-04-12T10:38:15.080Z,1.40
2023-04-12T10:43:29.365Z,1.20
2023-04-12T10:48:38.799Z,2.70
2023-04-12T10:53:42.733Z,1.30
2023-04-12T10:58:58.668Z,1.40
2023-04-12T11:04:25.795Z,2.50
2023-04-12T11:09:43.745Z,1.90
2023-04-12T11:14:53.102Z,1.70
2023-04-12T11:20:02.337Z,2.20
2023-04-12T11:25:07.286Z,2.00
2023-04-12T11:30:13.103Z,2.00
2023-04-12T11:35:17.667Z,2.50
2023-04-12T11:40:23.491Z,1.70
2023-04-12T11:45:29.882Z,2.70
2023-04-12T11:50:34.106Z,2.40
2023-04-12T11:55:38.257Z,1.50
2023-04-12T12:00:47.176Z,1.30
2023-04-12T12:05:52.292Z,1.70
2023-04-12T12:11:06.964Z,3.00
2023-04-12T12:16:13.668Z,2.10
2023-04-12T12:21:18.894Z,1.70
2023-04-12T12:26:25.783Z,1.30
2023-04-12T12:31:30.165Z,1.40
2023-04-12T12:36:37.768Z,1.40
2023-04-12T12:41:41.972Z,1.10
2023-04-12T12:46:53.561Z,1.80
2023-04-12T12:51:59.972Z,2.70
2023-04-12T12:57:05.833Z,1.20
2023-04-12T13:02:09.831Z,1.70
2023-04-12T13:07:13.913Z,1.70
2023-04-12T13:12:18.567Z,1.00
2023-04-12T13:17:22.558Z,1.30
2023-04-12T13:22:28.723Z,1.30
2023-04-12T13:27:35.140Z,1.50
2023-04-12T13:32:45.606Z,1.80
2023-04-12T13:37:50.064Z,1.00
2023-04-12T13:42:54.003Z,1.60
2023-04-12T13:47:58.201Z,0.90
2023-04-12T13:53:02.401Z,1.10
2023-04-12T13:58:06.514Z,2.10
2023-04-12T14:03:10.658Z,1.60
2023-04-12T14:08:14.671Z,2.00
2023-04-12T14:13:18.608Z,1.60
2023-04-12T14:18:23.019Z,1.30
2023-04-12T14:23:27.078Z,1.40
2023-04-12T14:28:32.146Z,3.40
2023-04-12T14:33:36.267Z,4.80
2023-04-12T14:38:40.409Z,6.40
2023-04-12T14:43:44.645Z,4.00
2023-04-12T14:48:48.786Z,4.60
2023-04-12T14:53:52.796Z,4.20
2023-04-12T14:58:57.880Z,6.60
2023-04-12T15:04:04.316Z,4.60
2023-04-12T15:09:10.241Z,6.00
2023-04-12T15:14:21.097Z,2.60
2023-04-12T15:19:25.156Z,3.60
2023-04-12T15:24:31.436Z,3.00
2023-04-12T15:29:36.073Z,5.80
2023-04-12T15:34:43.525Z,4.90
2023-04-12T15:39:52.766Z,3.60
2023-04-12T15:45:05.770Z,4.50
2023-04-12T15:50:19.343Z,2.60
2023-04-12T15:55:38.751Z,3.40
2023-04-12T16:00:48.189Z,8.40
2023-04-12T16:06:05.231Z,3.70
2023-04-12T16:11:14.172Z,6.10
2023-04-12T16:16:23.983Z,7.60
2023-04-12T16:21:31.334Z,3.70
2023-04-12T16:26:35.359Z,5.70
2023-04-12T16:31:40.983Z,5.70
2023-04-12T16:36:45.885Z,4.80
2023-04-12T16:41:51.449Z,3.20
2023-04-12T16:46:56.637Z,6.90
2023-04-12T16:52:02.470Z,4.60
2023-04-12T16:57:07.851Z,4.70
2023-04-12T17:02:13.731Z,5.70
2023-04-12T17:07:20.105Z,4.90
2023-04-12T17:12:24.772Z,26.50
2023-04-12T17:17:29.163Z,108.40
2023-04-12T17:22:34.757Z,70.40
2023-04-12T17:27:41.368Z,82.70
2023-04-12T17:32:50.607Z,75.40
2023-04-12T17:37:56.893Z,70.40
2023-04-12T17:43:02.421Z,64.20
2023-04-12T17:48:10.124Z,65.70
2023-04-12T17:53:15.969Z,65.20
2023-04-12T17:58:21.233Z,57.50
2023-04-12T18:03:28.588Z,50.70
2023-04-12T18:08:37.982Z,58.80
2023-04-12T18:13:43.824Z,54.40
2023-04-12T18:18:49.842Z,56.30
2023-04-12T18:23:55.171Z,48.10
2023-04-12T18:29:01.450Z,39.60
2023-04-12T18:34:06.100Z,45.40
2023-04-12T18:39:14.190Z,41.10
2023-04-12T18:44:21.162Z,39.10
2023-04-12T18:49:27.708Z,31.60
2023-04-12T18:54:33.381Z,28.60
2023-04-12T18:59:44.298Z,26.40
2023-04-12T19:04:54.305Z,31.60
2023-04-12T19:10:02.514Z,25.50
2023-04-12T19:15:12.375Z,24.30
2023-04-12T19:34:33.703Z,26.30
2023-04-12T19:39:47.653Z,27.50
2023-04-12T19:44:56.834Z,24.60
2023-04-12T19:50:03.161Z,24.90
2023-04-12T19:55:10.672Z,22.00
2023-04-12T20:00:27.691Z,23.90
2023-04-12T20:05:34.457Z,20.20
2023-04-12T20:10:42.063Z,20.40
2023-04-12T20:15:52.115Z,24.10
2023-04-12T20:21:00.374Z,22.50
2023-04-12T20:26:06.688Z,20.30
2023-04-12T20:31:13.960Z,19.30
2023-04-12T20:36:20.003Z,19.40
2023-04-12T20:41:26.344Z,16.20
2023-04-12T20:46:31.805Z,18.10
2023-04-12T20:51:36.932Z,16.80
2023-04-12T20:56:42.406Z,18.30
2023-04-12T21:01:47.251Z,15.70
2023-04-12T21:06:56.101Z,23.00
2023-04-12T21:12:03.005Z,18.80
2023-04-12T21:17:07.394Z,21.50
2023-04-12T21:22:11.707Z,19.40
2023-04-12T21:27:16.018Z,20.60
2023-04-12T21:32:20.067Z,20.00
2023-04-12T21:37:24.305Z,14.90
2023-04-12T21:42:30.040Z,14.90
2023-04-12T21:47:34.429Z,16.80
2023-04-12T21:52:39.369Z,15.90
2023-04-12T21:57:43.499Z,13.10
2023-04-12T22:02:47.765Z,15.00
2023-04-12T22:07:51.768Z,17.00
2023-04-12T22:12:55.808Z,13.90
2023-04-12T22:18:00.518Z,13.80
2023-04-12T22:23:05.204Z,14.60
2023-04-12T22:28:10.573Z,21.30
2023-04-12T22:33:16.340Z,16.60
2023-04-12T22:38:20.464Z,18.30
2023-04-12T22:43:25.415Z,15.30
2023-04-12T22:48:32.726Z,16.70
2023-04-12T22:53:36.565Z,11.40
2023-04-12T22:58:40.994Z,11.90
2023-04-12T23:03:45.147Z,17.00
2023-04-12T23:08:50.087Z,15.20
2023-04-12T23:13:55.141Z,13.80
2023-04-12T23:18:59.367Z,14.70
2023-04-12T23:24:04.724Z,14.40
2023-04-12T23:29:08.659Z,9.90
2023-04-12T23:34:13.737Z,13.40
2023-04-12T23:39:18.484Z,10.70
2023-04-12T23:44:22.625Z,10.20
2023-04-12T23:49:26.958Z,10.50
2023-04-12T23:54:31.184Z,11.00
2023-04-12T23:59:35.113Z,14.20
